x

Isle Of Shoals, Nh (iosn3) Weather Station

8:00 - Wed 28th Jan 2015 All times are EST. -5 hours from GMT.

  • Wind
    22mph, 24mph gusts
  • Air Temp 17°f
  • Sea Pressure 1010.2mb
  • Isle Of Shoals, Nh
  • Isle Of Shoals, Nh

More Historic Weather Station data

Upgrade to MSW Pro to gain access to the past 30 days of data for over 8000 Wavebouys and Weather Stations around the globe.

Join Pro

Comparision Forecast

View Surf forecast
   
mer. 01/28 8:00 22 24 mph 1010.2mb 17f
7:00 21 26 mph 1008.9mb 17f
6:00 21 23 mph 1008.1mb 17f
5:00 21 24 mph 1006.7mb 17f
4:00 23 26 mph 1005.7mb 18f
3:00 24 29 mph 1004.7mb 18f
2:00 28 32 mph 1003.7mb 17f
1:00 31 37 mph 1002.7mb 17f
12:00 31 37 mph 1002.4mb 17f
mar. 01/27 11:00 31 36 mph 1001.7mb 17f
10:00 31 36 mph 1001.1mb 17f
9:00 37 41 mph 1000.5mb 17f
8:00 34 39 mph 1000mb 19f
7:00 49 61 mph 998.9mb 19f
6:00 52 63 mph 998.3mb 18f
5:00 52 61 mph 997.5mb 18f
4:00 44 52 mph 997.3mb 18f
3:00 43 48 mph 997mb 17f
2:00 43 48 mph 996.6mb 18f
1:00 48 54 mph 996.6mb 19f
12:00 47 59 mph 997.4mb 19f
11:00 55 62 mph 997.5mb 19f
10:00 54 61 mph 999.3mb 17f
9:00 52 61 mph 999.7mb 17f
8:00 57 64 mph 1000.5mb 16f
7:00 52 61 mph 1001.6mb 17f
6:00 52 60 mph 1001.3mb 16f
5:00 63 69 mph 1001.5mb 16f
4:00 55 63 mph 1004mb 17f
3:00 49 59 mph 1005.9mb 18f
2:00 52 60 mph 1006.3mb 19f
1:00 47 56 mph 1008.8mb 19f
12:00 45 52 mph 1010.6mb 19f
lun. 01/26 11:00 48 57 mph 1012.3mb 22f
10:00 45 51 mph 1013.9mb 23f
9:00 38 44 mph 1015.6mb 26f
8:00 38 43 mph 1016.7mb 27f
7:00 37 41 mph 1016.9mb 27f
6:00 29 34 mph 1017.6mb 26f
5:00 32 38 mph 1017.7mb 25f
4:00 26 29 mph 1017.8mb 25f
3:00 25 28 mph 1017.9mb 24f
2:00 22 24 mph 1018.1mb 24f
1:00 20 22 mph 1018.8mb 23f
12:00 20 24 mph 1019.6mb 21f
11:00 18 22 mph 1020.7mb 19f
10:00 18 21 mph 1021.2mb 17f
9:00 18 21 mph 1020.8mb 16f
8:00 16 20 mph 1020.6mb 14f
7:00 11 13 mph 1020.7mb 15f
6:00 13 15 mph 1019.8mb 14f
5:00 11 15 mph 1019.3mb 13f
4:00 11 14 mph 1018.9mb 13f
3:00 16 17 mph 1018.1mb 13f
2:00 20 23 mph 1017.6mb 14f
1:00 22 24 mph 1017.4mb 15f
12:00 23 26 mph 1016.2mb 16f
dim. 01/25 11:00 24 28 mph 1015.7mb 17f
10:00 25 28 mph 1014.4mb 19f
9:00 29 32 mph 1012.8mb 21f
8:00 31 38 mph 1011.3mb 23f
7:00 28 33 mph 1010.1mb 25f
6:00 29 32 mph 1009mb 26f
5:00 29 32 mph 1007.2mb 28f
4:00 31 36 mph 1005.3mb 30f
3:00 28 30 mph 1004mb 31f
2:00 24 29 mph 1002.7mb 31f
1:00 26 31 mph 1001.5mb 32f
12:00 33 36 mph 1000.6mb 32f
11:00 30 33 mph 999.9mb 34f
10:00 29 31 mph 997.9mb 36f
9:00 26 30 mph 997.1mb 35f
8:00 28 31 mph 996.5mb 34f
7:00 25 29 mph 995.7mb 33f
6:00 25 28 mph 994.8mb 33f
5:00 29 33 mph 993.7mb 34f
4:00 32 34 mph 992mb 34f
3:00 28 31 mph 991.5mb 33f
2:00 25 30 mph 990.4mb 33f
1:00 30 36 mph 988.8mb 33f
12:00 28 33 mph 988.5mb 32f
sam. 01/24 11:00 20 23 mph 988.5mb 30f
10:00 15 17 mph 988.4mb 30f
9:00 23 25 mph 987.7mb 30f
8:00 25 29 mph 987.3mb 29f
7:00 30 31 mph 987.8mb 30f
6:00 25 26 mph 987.3mb 31f
5:00 30 32 mph 986.6mb 32f
4:00 29 32 mph 989.1mb 32f
3:00 24 26 mph 992.3mb 32f